Time;durP1;ratioP1;P1;durP2;ratioP2;P2;SDS_P1;SDS_P2;PMS_P1;PMS_P2;Temp;Humidity;BMP_temperature;BMP_pressure;BME280_temperature;BME280_humidity;BME280_pressure;Samples;Min_cycle;Max_cycle;Signal;HPM_P1;HPM_P2
2021/10/18 00:01:00;;;;;;;19.15;13.50;;;10.20;99.90;;;;;;5031128;28;20043;-66
2021/10/18 00:03:27;;;;;;;18.42;13.38;;;10.20;99.90;;;;;;5031140;28;20041;-66
2021/10/18 00:05:55;;;;;;;20.63;14.07;;;10.20;99.90;;;;;;5046331;28;20047;-66
2021/10/18 00:08:22;;;;;;;22.35;14.02;;;10.20;99.90;;;;;;5040316;28;20087;-66
2021/10/18 00:10:49;;;;;;;18.42;13.45;;;10.10;99.90;;;;;;5047385;28;20040;-66
2021/10/18 00:13:37;;;;;;;19.40;13.52;;;10.10;99.90;;;;;;5017109;28;20076;-66
2021/10/18 00:16:05;;;;;;;18.65;13.68;;;10.10;99.90;;;;;;5026907;28;20132;-66
2021/10/18 00:18:32;;;;;;;17.98;13.50;;;10.10;99.90;;;;;;5033885;28;20075;-66
2021/10/18 00:21:00;;;;;;;18.85;13.00;;;10.10;99.90;;;;;;5030878;28;20046;-66
2021/10/18 00:23:27;;;;;;;19.48;14.15;;;10.10;99.90;;;;;;5019647;28;20046;-66
2021/10/18 00:25:54;;;;;;;19.10;13.00;;;10.00;99.90;;;;;;5034796;28;20044;-66
2021/10/18 00:28:21;;;;;;;17.75;13.25;;;10.00;99.90;;;;;;5034394;28;20042;-66
2021/10/18 00:30:49;;;;;;;17.17;13.23;;;10.00;99.90;;;;;;5037583;28;20476;-66
2021/10/18 00:33:16;;;;;;;23.30;13.35;;;10.00;99.90;;;;;;5028583;28;20053;-68
2021/10/18 00:35:44;;;;;;;19.45;13.63;;;10.00;99.90;;;;;;5029189;28;20088;-66
2021/10/18 00:38:12;;;;;;;24.25;14.15;;;10.00;99.90;;;;;;5046717;28;20082;-67
2021/10/18 00:40:39;;;;;;;18.90;13.75;;;10.00;99.90;;;;;;5042510;28;20140;-67
2021/10/18 00:43:07;;;;;;;19.50;13.55;;;10.00;99.90;;;;;;5022663;28;20044;-67
2021/10/18 00:45:34;;;;;;;18.70;13.90;;;10.00;99.90;;;;;;5028450;28;20048;-66
2021/10/18 00:48:03;;;;;;;19.23;13.90;;;10.00;99.90;;;;;;5041730;28;20072;-67
2021/10/18 00:50:30;;;;;;;17.65;12.90;;;10.00;99.90;;;;;;5016374;28;20507;-66
2021/10/18 00:52:59;;;;;;;19.65;13.45;;;10.10;99.90;;;;;;5032015;28;20068;-66
2021/10/18 00:55:27;;;;;;;18.73;13.73;;;10.00;99.90;;;;;;5005843;28;20571;-67
2021/10/18 00:57:54;;;;;;;18.30;13.48;;;10.00;99.90;;;;;;5021902;28;20049;-66
2021/10/18 01:00:22;;;;;;;19.13;13.73;;;10.10;99.90;;;;;;5022412;28;20051;-67
2021/10/18 01:02:49;;;;;;;21.70;13.43;;;10.00;99.90;;;;;;5020692;28;20129;-67
2021/10/18 01:05:18;;;;;;;18.08;13.25;;;10.00;99.90;;;;;;5028177;28;20522;-66
2021/10/18 01:07:47;;;;;;;19.55;13.18;;;10.00;99.90;;;;;;5034235;28;20481;-66
2021/10/18 01:10:14;;;;;;;19.75;14.30;;;10.00;99.90;;;;;;5035632;28;20041;-66
2021/10/18 01:12:41;;;;;;;19.02;14.15;;;10.00;99.90;;;;;;5030439;28;20087;-66
2021/10/18 01:15:09;;;;;;;16.92;13.52;;;10.00;99.90;;;;;;5032164;28;20056;-66
2021/10/18 01:17:36;;;;;;;18.50;13.40;;;10.00;99.90;;;;;;5042285;28;20111;-66
2021/10/18 01:20:09;;;;;;;17.92;13.10;;;10.00;99.90;;;;;;5041321;28;20053;-66
2021/10/18 01:22:37;;;;;;;19.20;14.02;;;10.00;99.90;;;;;;5048274;28;20484;-66
2021/10/18 01:25:04;;;;;;;19.52;14.50;;;10.00;99.90;;;;;;5049729;28;20045;-66
2021/10/18 01:27:32;;;;;;;21.02;14.73;;;10.00;99.90;;;;;;5047030;28;20124;-66
2021/10/18 01:29:59;;;;;;;25.27;16.60;;;10.00;99.90;;;;;;5052201;28;20531;-66
2021/10/18 01:32:26;;;;;;;22.75;16.65;;;10.00;99.90;;;;;;5039287;28;20049;-66
2021/10/18 01:34:54;;;;;;;22.55;17.02;;;9.90;99.90;;;;;;5044504;28;20042;-66
2021/10/18 01:37:21;;;;;;;22.58;16.33;;;9.90;99.90;;;;;;5030884;28;20143;-66
2021/10/18 01:39:48;;;;;;;24.17;17.02;;;9.90;99.90;;;;;;5024958;28;20045;-66
2021/10/18 01:42:15;;;;;;;23.63;17.02;;;9.80;99.90;;;;;;5033471;28;20045;-66
2021/10/18 01:44:44;;;;;;;25.02;17.30;;;9.80;99.90;;;;;;5027783;28;20037;-66
2021/10/18 01:47:11;;;;;;;25.25;18.27;;;9.70;99.90;;;;;;5025109;28;20048;-66
2021/10/18 01:49:38;;;;;;;22.10;16.55;;;9.70;99.90;;;;;;5020917;28;20074;-66
2021/10/18 01:52:05;;;;;;;29.15;19.13;;;9.70;99.90;;;;;;5026980;28;20046;-66
2021/10/18 01:54:33;;;;;;;24.77;18.10;;;9.70;99.90;;;;;;5029530;28;20388;-66
2021/10/18 01:57:00;;;;;;;25.48;17.90;;;9.70;99.90;;;;;;5047313;28;20049;-66
2021/10/18 01:59:28;;;;;;;26.17;18.23;;;9.70;99.90;;;;;;5047650;28;20041;-66
2021/10/18 02:01:56;;;;;;;28.42;19.75;;;9.70;99.90;;;;;;5046707;28;20056;-66
2021/10/18 02:04:23;;;;;;;28.40;18.45;;;9.60;99.90;;;;;;5049460;28;20064;-66
2021/10/18 02:06:50;;;;;;;29.23;20.30;;;9.60;99.90;;;;;;5045635;28;20057;-66
2021/10/18 02:09:18;;;;;;;27.42;18.38;;;9.60;99.90;;;;;;5044839;28;20107;-66
2021/10/18 02:11:45;;;;;;;27.15;19.45;;;9.60;99.90;;;;;;5043717;28;20404;-66
2021/10/18 02:14:12;;;;;;;25.70;18.92;;;9.60;99.90;;;;;;5049184;28;20052;-66
2021/10/18 02:16:39;;;;;;;27.05;18.90;;;9.60;99.90;;;;;;5046688;28;20082;-66
2021/10/18 02:19:07;;;;;;;30.38;21.55;;;9.60;99.90;;;;;;5048354;28;20060;-66
2021/10/18 02:21:35;;;;;;;29.83;21.15;;;9.60;99.90;;;;;;5050421;28;20041;-66
2021/10/18 02:24:02;;;;;;;29.17;21.70;;;9.60;99.90;;;;;;5047775;28;20399;-66
2021/10/18 02:26:29;;;;;;;28.98;21.15;;;9.50;99.90;;;;;;5048957;28;20467;-66
2021/10/18 02:28:57;;;;;;;30.58;20.80;;;9.50;99.90;;;;;;5047409;28;20488;-66
2021/10/18 02:31:24;;;;;;;34.42;24.15;;;9.50;99.90;;;;;;5047623;28;20037;-66
2021/10/18 02:33:52;;;;;;;30.40;21.98;;;9.50;99.90;;;;;;5047482;28;20045;-66
2021/10/18 02:36:19;;;;;;;37.83;24.85;;;9.50;99.90;;;;;;5050280;28;20045;-66
2021/10/18 02:38:46;;;;;;;32.47;23.45;;;9.50;99.90;;;;;;5041396;28;20133;-67
2021/10/18 02:41:14;;;;;;;31.60;23.23;;;9.50;99.90;;;;;;5046822;28;20060;-66
2021/10/18 02:43:41;;;;;;;30.35;21.77;;;9.50;99.90;;;;;;5046700;28;20047;-66
2021/10/18 02:46:08;;;;;;;33.03;22.45;;;9.50;99.90;;;;;;5048554;28;20487;-66
2021/10/18 02:48:36;;;;;;;33.85;22.60;;;9.50;99.90;;;;;;5051584;28;20041;-66
2021/10/18 02:51:03;;;;;;;33.10;23.50;;;9.50;99.90;;;;;;5048940;28;20815;-66
2021/10/18 02:53:30;;;;;;;33.33;24.42;;;9.50;99.90;;;;;;5034331;28;20512;-66
2021/10/18 02:55:57;;;;;;;39.67;25.67;;;9.50;99.90;;;;;;5031569;28;20045;-66
2021/10/18 02:58:24;;;;;;;33.47;22.90;;;9.50;99.90;;;;;;5031891;28;20510;-66
2021/10/18 03:00:52;;;;;;;31.15;21.92;;;9.50;99.90;;;;;;5032078;28;20045;-66
2021/10/18 03:03:19;;;;;;;33.30;22.98;;;9.60;99.90;;;;;;5034574;28;20061;-66
2021/10/18 03:05:47;;;;;;;34.70;23.20;;;9.60;99.90;;;;;;5033192;28;20044;-66
2021/10/18 03:08:14;;;;;;;35.22;23.92;;;9.60;99.90;;;;;;5023043;28;20037;-66
2021/10/18 03:10:42;;;;;;;37.63;26.25;;;9.60;99.90;;;;;;5024670;28;20098;-66
2021/10/18 03:13:11;;;;;;;36.70;25.63;;;9.60;99.90;;;;;;5036023;28;20049;-66
2021/10/18 03:15:38;;;;;;;37.20;26.13;;;9.60;99.90;;;;;;5041663;28;20368;-66
2021/10/18 03:18:05;;;;;;;36.05;25.48;;;9.60;99.90;;;;;;5039108;28;20044;-66
2021/10/18 03:20:33;;;;;;;36.72;25.02;;;9.60;99.90;;;;;;5041770;28;20059;-66
2021/10/18 03:23:00;;;;;;;38.80;26.50;;;9.70;99.90;;;;;;5015346;28;20046;-66
2021/10/18 03:25:30;;;;;;;37.35;26.70;;;9.70;99.90;;;;;;5039747;28;20038;-66
2021/10/18 03:28:03;;;;;;;40.83;27.25;;;9.70;99.90;;;;;;5050992;28;20094;-66
2021/10/18 03:30:30;;;;;;;40.90;27.80;;;9.70;99.90;;;;;;5035895;28;20412;-66
2021/10/18 03:32:58;;;;;;;41.72;27.42;;;9.70;99.90;;;;;;5035991;28;20049;-66
2021/10/18 03:35:25;;;;;;;41.42;28.10;;;9.70;99.90;;;;;;5035533;28;20068;-66
2021/10/18 03:37:53;;;;;;;42.58;26.65;;;9.70;99.90;;;;;;5044923;28;20036;-66
2021/10/18 03:40:24;;;;;;;42.92;27.48;;;9.70;99.90;;;;;;5043987;28;20049;-66
2021/10/18 03:42:52;;;;;;;41.10;28.10;;;9.80;99.90;;;;;;5049311;28;20500;-66
2021/10/18 03:45:19;;;;;;;48.35;32.30;;;9.80;99.90;;;;;;5049446;28;20454;-66
2021/10/18 03:47:46;;;;;;;46.00;29.55;;;9.80;99.90;;;;;;5048333;28;20064;-66
2021/10/18 03:50:15;;;;;;;40.10;26.88;;;9.90;99.90;;;;;;5005625;28;20530;-66
2021/10/18 03:52:43;;;;;;;41.55;28.15;;;9.90;99.90;;;;;;5026378;28;20099;-66
2021/10/18 03:55:10;;;;;;;46.60;29.17;;;9.90;99.90;;;;;;5041896;28;20045;-66
2021/10/18 03:57:39;;;;;;;44.95;29.15;;;9.90;99.90;;;;;;5045524;28;20049;-66
2021/10/18 04:00:07;;;;;;;44.72;29.27;;;9.90;99.90;;;;;;5041910;28;20046;-66
2021/10/18 04:02:41;;;;;;;45.60;28.73;;;9.90;99.90;;;;;;5045285;28;20049;-66
2021/10/18 04:05:09;;;;;;;43.70;27.70;;;9.90;99.90;;;;;;5026074;28;20619;-66
2021/10/18 04:07:38;;;;;;;45.70;29.90;;;9.90;99.90;;;;;;5047059;28;20033;-66
2021/10/18 04:10:06;;;;;;;43.35;29.60;;;9.90;99.90;;;;;;5030819;28;20556;-66
2021/10/18 04:12:34;;;;;;;46.20;29.73;;;9.90;99.90;;;;;;5025223;28;20045;-66
2021/10/18 04:15:01;;;;;;;41.78;27.98;;;9.90;99.90;;;;;;5036169;28;20056;-66
2021/10/18 04:17:28;;;;;;;43.00;29.98;;;9.90;99.90;;;;;;5034788;28;20052;-66
2021/10/18 04:19:56;;;;;;;48.03;30.73;;;9.90;99.90;;;;;;5029606;28;20113;-66
2021/10/18 04:22:23;;;;;;;45.35;30.17;;;9.90;99.90;;;;;;5034635;28;20049;-66
2021/10/18 04:24:51;;;;;;;47.03;29.85;;;9.90;99.90;;;;;;5045263;28;20053;-66
2021/10/18 04:27:18;;;;;;;49.40;32.30;;;9.90;99.90;;;;;;5047491;28;20063;-66
2021/10/18 04:29:45;;;;;;;54.20;33.85;;;9.90;99.90;;;;;;5050098;28;20569;-67
2021/10/18 04:32:13;;;;;;;50.88;31.67;;;10.00;99.90;;;;;;5035979;28;20144;-67
2021/10/18 04:34:40;;;;;;;50.88;31.48;;;10.00;99.90;;;;;;5030539;28;20045;-67
2021/10/18 04:37:07;;;;;;;49.00;31.20;;;10.10;99.90;;;;;;5029898;28;20053;-66
2021/10/18 04:39:35;;;;;;;48.70;31.13;;;10.10;99.90;;;;;;5031351;28;20045;-66
2021/10/18 04:42:02;;;;;;;47.13;30.40;;;10.10;99.90;;;;;;5034412;28;20034;-66
2021/10/18 04:44:30;;;;;;;48.40;29.65;;;10.00;99.90;;;;;;5042580;28;20456;-66
2021/10/18 04:46:57;;;;;;;46.30;28.77;;;10.00;99.90;;;;;;5045476;28;20071;-66
2021/10/18 04:49:24;;;;;;;47.20;28.70;;;9.90;99.90;;;;;;5028861;28;20071;-67
2021/10/18 04:51:52;;;;;;;46.00;29.20;;;10.00;99.90;;;;;;5030577;28;20500;-67
2021/10/18 04:54:19;;;;;;;47.35;29.15;;;10.00;99.90;;;;;;5041665;28;20045;-67
2021/10/18 04:56:46;;;;;;;49.85;29.45;;;10.00;99.90;;;;;;5043215;28;20045;-67
2021/10/18 04:59:13;;;;;;;51.40;31.63;;;10.00;99.90;;;;;;5037811;28;20415;-67
2021/10/18 05:01:41;;;;;;;48.90;30.38;;;10.00;99.90;;;;;;5037278;28;20526;-67
2021/10/18 05:04:08;;;;;;;51.65;32.35;;;10.10;99.90;;;;;;5039014;28;20578;-67
2021/10/18 05:06:35;;;;;;;53.63;33.35;;;10.10;99.90;;;;;;5046310;28;20041;-67
2021/10/18 05:09:03;;;;;;;60.35;35.08;;;10.10;99.90;;;;;;5034309;28;20053;-67
2021/10/18 05:11:30;;;;;;;54.33;32.38;;;10.10;99.90;;;;;;5039889;28;20045;-67
2021/10/18 05:13:58;;;;;;;50.47;32.05;;;10.10;99.90;;;;;;5044294;28;20041;-67
2021/10/18 05:16:25;;;;;;;55.92;33.05;;;10.10;99.90;;;;;;5035514;28;20049;-67
2021/10/18 05:18:53;;;;;;;50.50;30.88;;;10.10;99.90;;;;;;5033247;28;20120;-66
2021/10/18 05:21:20;;;;;;;54.20;31.85;;;10.10;99.90;;;;;;5036899;28;20127;-66
2021/10/18 05:23:48;;;;;;;52.75;32.33;;;10.10;99.90;;;;;;5040857;28;20129;-66
2021/10/18 05:26:15;;;;;;;57.63;35.38;;;10.10;99.90;;;;;;5044081;28;20471;-66
2021/10/18 05:28:42;;;;;;;49.50;31.75;;;10.10;99.90;;;;;;5040196;28;20175;-67
2021/10/18 05:31:10;;;;;;;51.28;30.52;;;10.10;99.90;;;;;;5039922;28;20037;-66
2021/10/18 05:33:38;;;;;;;51.03;31.08;;;10.10;99.90;;;;;;5033587;28;20052;-66
2021/10/18 05:36:05;;;;;;;57.55;31.90;;;10.10;99.90;;;;;;5035439;28;20048;-67
2021/10/18 05:38:33;;;;;;;55.92;33.22;;;10.10;99.90;;;;;;5039531;28;20057;-67
2021/10/18 05:41:00;;;;;;;53.03;31.85;;;10.10;99.90;;;;;;5042948;28;20037;-67
2021/10/18 05:43:27;;;;;;;61.80;34.60;;;10.10;99.90;;;;;;5040839;28;20060;-66
2021/10/18 05:45:54;;;;;;;61.88;34.88;;;10.10;99.90;;;;;;5038663;28;20137;-67
2021/10/18 05:48:22;;;;;;;58.20;32.72;;;10.10;99.90;;;;;;5033705;28;20053;-66
2021/10/18 05:50:49;;;;;;;59.15;36.00;;;10.10;99.90;;;;;;5039859;28;20034;-67
2021/10/18 05:53:16;;;;;;;55.75;31.98;;;10.10;99.90;;;;;;5035200;28;20045;-67
2021/10/18 05:55:44;;;;;;;61.17;34.63;;;10.10;99.90;;;;;;5029468;28;20045;-66
2021/10/18 05:58:12;;;;;;;59.70;33.50;;;10.00;99.90;;;;;;5030559;28;20399;-66
2021/10/18 06:00:44;;;;;;;60.13;33.63;;;10.00;99.90;;;;;;5033254;28;20396;-66
2021/10/18 06:03:13;;;;;;;58.30;33.35;;;10.10;99.90;;;;;;5029799;28;20041;-67
2021/10/18 06:05:46;;;;;;;59.40;33.60;;;10.10;99.90;;;;;;5036163;28;20045;-66
2021/10/18 06:08:34;;;;;;;57.20;32.92;;;10.10;99.90;;;;;;5034324;28;20041;-66
2021/10/18 06:11:04;;;;;;;54.25;31.48;;;10.10;99.90;;;;;;5035274;28;20100;-66
2021/10/18 06:13:31;;;;;;;54.55;30.77;;;10.10;99.90;;;;;;5036781;28;20385;-66
2021/10/18 06:15:59;;;;;;;55.70;32.88;;;10.10;99.90;;;;;;5037024;28;20057;-66
2021/10/18 06:18:31;;;;;;;53.47;31.55;;;10.10;99.90;;;;;;5034718;28;20041;-66
2021/10/18 06:20:59;;;;;;;60.00;34.67;;;10.10;99.90;;;;;;5038578;28;20125;-66
2021/10/18 06:23:27;;;;;;;55.70;32.90;;;10.20;99.90;;;;;;5035754;28;20044;-67
2021/10/18 06:25:55;;;;;;;56.10;32.53;;;10.20;99.90;;;;;;5038078;28;20049;-67
2021/10/18 06:28:22;;;;;;;59.40;33.33;;;10.20;99.90;;;;;;5036068;28;20055;-66
2021/10/18 06:30:50;;;;;;;55.78;32.92;;;10.20;99.90;;;;;;5020346;28;20090;-66
2021/10/18 06:33:21;;;;;;;62.33;34.28;;;10.20;99.90;;;;;;5034451;28;20045;-67
2021/10/18 06:35:48;;;;;;;64.00;36.85;;;10.20;99.90;;;;;;5033953;28;20049;-66
2021/10/18 06:38:17;;;;;;;60.97;34.22;;;10.20;99.90;;;;;;5034052;28;20475;-66
2021/10/18 06:40:47;;;;;;;51.75;31.08;;;10.30;99.90;;;;;;5033566;28;20073;-66
2021/10/18 06:43:16;;;;;;;54.53;32.65;;;10.30;99.90;;;;;;5032749;28;20079;-66
2021/10/18 06:45:43;;;;;;;55.42;31.48;;;10.30;99.90;;;;;;5035258;28;20072;-67
2021/10/18 06:48:14;;;;;;;54.65;31.88;;;10.40;99.90;;;;;;5029574;28;20045;-66
2021/10/18 06:50:43;;;;;;;53.67;31.50;;;10.40;99.90;;;;;;5020970;28;20485;-67
2021/10/18 06:53:16;;;;;;;55.80;30.38;;;10.40;99.90;;;;;;5028541;28;20488;-66
2021/10/18 06:55:44;;;;;;;58.55;31.67;;;10.40;99.90;;;;;;5030201;28;20045;-66
2021/10/18 06:58:12;;;;;;;53.13;30.25;;;10.40;99.90;;;;;;5030204;28;20076;-67
2021/10/18 07:00:39;;;;;;;57.28;29.95;;;10.50;99.90;;;;;;5030298;28;20042;-66
2021/10/18 07:03:07;;;;;;;58.17;32.40;;;10.40;99.90;;;;;;5024963;28;20041;-67
2021/10/18 07:05:34;;;;;;;51.97;29.75;;;10.50;99.90;;;;;;5035828;28;20450;-67
2021/10/18 07:08:02;;;;;;;57.53;32.22;;;10.50;99.90;;;;;;5031956;28;20064;-67
2021/10/18 07:10:29;;;;;;;53.92;30.42;;;10.50;99.90;;;;;;5031131;28;20369;-67
2021/10/18 07:12:56;;;;;;;53.28;30.98;;;10.50;99.90;;;;;;5038985;28;20033;-67
2021/10/18 07:15:24;;;;;;;49.50;29.30;;;10.50;99.90;;;;;;5030140;28;20056;-67
2021/10/18 07:17:53;;;;;;;51.90;28.80;;;10.50;99.90;;;;;;5041611;28;20037;-67
2021/10/18 07:20:20;;;;;;;53.08;29.70;;;10.50;99.90;;;;;;5039177;28;20045;-67
2021/10/18 07:22:49;;;;;;;55.08;29.38;;;10.50;99.90;;;;;;5043796;28;20094;-67
2021/10/18 07:25:20;;;;;;;57.25;29.27;;;10.40;99.90;;;;;;5045351;28;20480;-66
2021/10/18 07:27:47;;;;;;;51.38;28.65;;;10.40;99.90;;;;;;5040259;28;20045;-67
2021/10/18 07:30:20;;;;;;;48.35;26.25;;;10.40;99.90;;;;;;5020486;28;20058;-66
2021/10/18 07:32:47;;;;;;;55.10;28.65;;;10.40;99.90;;;;;;5026190;28;20063;-67
2021/10/18 07:35:20;;;;;;;45.95;26.75;;;10.40;99.90;;;;;;5036941;28;20056;-67
2021/10/18 07:37:54;;;;;;;52.70;27.88;;;10.40;99.90;;;;;;5027010;28;20046;-67
2021/10/18 07:40:22;;;;;;;50.55;28.30;;;10.40;99.90;;;;;;5031522;28;20054;-66
2021/10/18 07:42:50;;;;;;;55.83;28.95;;;10.40;99.90;;;;;;5038723;28;20361;-67
2021/10/18 07:45:17;;;;;;;54.20;27.85;;;10.50;99.90;;;;;;5034771;28;20034;-67
2021/10/18 07:47:45;;;;;;;53.60;29.55;;;10.50;99.90;;;;;;5033919;28;20468;-66
2021/10/18 07:50:13;;;;;;;49.03;28.65;;;10.50;99.90;;;;;;5045415;28;20041;-67
2021/10/18 07:52:42;;;;;;;51.78;30.35;;;10.50;99.90;;;;;;5030514;28;20120;-67
2021/10/18 07:55:15;;;;;;;51.58;29.33;;;10.50;99.90;;;;;;5024968;28;20395;-67
2021/10/18 07:57:43;;;;;;;53.22;28.52;;;10.50;99.90;;;;;;5032422;28;20403;-67
2021/10/18 08:00:12;;;;;;;53.88;29.20;;;10.60;99.90;;;;;;5033071;28;20047;-67
2021/10/18 08:02:40;;;;;;;45.22;25.67;;;10.60;99.90;;;;;;5029081;28;20067;-67
2021/10/18 08:05:08;;;;;;;50.17;28.88;;;10.60;99.90;;;;;;5046725;28;20143;-67
2021/10/18 08:07:37;;;;;;;49.33;27.85;;;10.60;99.90;;;;;;5013111;28;20069;-67
2021/10/18 08:10:06;;;;;;;47.50;27.67;;;10.60;99.90;;;;;;5022157;28;20049;-66
2021/10/18 08:12:36;;;;;;;44.75;26.35;;;10.70;99.90;;;;;;5045664;28;20065;-66
2021/10/18 08:15:04;;;;;;;50.63;28.92;;;10.70;99.90;;;;;;5044132;28;20414;-67
2021/10/18 08:17:32;;;;;;;50.75;29.33;;;10.70;99.90;;;;;;5035725;28;20253;-66
2021/10/18 08:19:59;;;;;;;45.42;27.27;;;10.70;99.90;;;;;;5024931;28;20045;-66
2021/10/18 08:22:27;;;;;;;49.38;29.05;;;10.80;99.90;;;;;;5030757;28;20077;-66
2021/10/18 08:24:54;;;;;;;49.30;27.15;;;10.80;99.90;;;;;;5025192;28;20143;-66
2021/10/18 08:27:21;;;;;;;50.53;28.95;;;10.90;99.90;;;;;;5012364;28;20041;-66
2021/10/18 08:29:49;;;;;;;51.88;29.08;;;10.90;99.90;;;;;;5034249;28;20411;-66
2021/10/18 08:32:16;;;;;;;50.28;28.77;;;10.80;99.90;;;;;;5041932;28;20373;-66
2021/10/18 08:34:43;;;;;;;47.60;28.38;;;10.80;99.90;;;;;;5033379;28;20048;-66
2021/10/18 08:37:11;;;;;;;45.00;26.67;;;10.80;99.90;;;;;;5030218;28;20440;-66
2021/10/18 08:42:28;;;;;;;50.50;29.58;;;11.00;99.90;;;;;;5028576;28;20045;-66
2021/10/18 08:44:55;;;;;;;53.80;29.85;;;11.00;99.90;;;;;;5030093;28;20125;-67
2021/10/18 08:47:26;;;;;;;45.58;28.42;;;11.00;99.90;;;;;;5034523;28;20049;-67
2021/10/18 08:49:54;;;;;;;47.20;28.60;;;11.00;99.90;;;;;;5028575;28;20431;-67
2021/10/18 08:52:21;;;;;;;47.40;27.35;;;11.00;99.90;;;;;;5032553;28;20546;-67
2021/10/18 08:54:48;;;;;;;46.97;27.10;;;11.10;99.90;;;;;;5027181;28;20056;-67
2021/10/18 08:57:16;;;;;;;52.25;29.42;;;11.20;99.90;;;;;;5033264;28;20124;-67
2021/10/18 08:59:43;;;;;;;47.35;27.55;;;11.10;99.90;;;;;;5015581;28;20048;-66
2021/10/18 09:02:10;;;;;;;47.85;27.55;;;11.20;99.90;;;;;;5038135;28;20064;-67
2021/10/18 09:04:38;;;;;;;49.42;28.23;;;11.20;99.90;;;;;;5030861;28;20038;-67
2021/10/18 09:07:17;;;;;;;48.83;29.00;;;11.20;99.90;;;;;;5039621;28;20044;-67
2021/10/18 09:09:54;;;;;;;49.60;28.40;;;11.20;99.90;;;;;;5026084;28;20515;-67
2021/10/18 09:12:26;;;;;;;47.30;27.15;;;11.20;99.90;;;;;;5029980;28;20148;-67
2021/10/18 09:15:19;;;;;;;47.13;27.30;;;11.20;99.90;;;;;;5021958;28;20080;-67
2021/10/18 09:17:54;;;;;;;47.58;27.35;;;11.30;99.90;;;;;;5023669;28;20064;-67
2021/10/18 09:20:31;;;;;;;45.47;27.77;;;11.40;99.90;;;;;;5003541;28;20067;-67
2021/10/18 09:23:29;;;;;;;42.97;25.98;;;11.40;99.90;;;;;;5038026;28;20049;-67
2021/10/18 09:26:04;;;;;;;45.88;27.63;;;11.40;99.90;;;;;;5040733;28;20065;-67
2021/10/18 09:28:32;;;;;;;47.95;25.95;;;11.40;99.90;;;;;;5040247;28;20522;-67
2021/10/18 09:31:00;;;;;;;40.50;25.02;;;11.30;99.90;;;;;;5042329;28;20441;-67
2021/10/18 09:33:39;;;;;;;45.95;27.92;;;11.30;99.90;;;;;;5040187;28;20045;-67
2021/10/18 09:36:18;;;;;;;39.47;23.65;;;11.40;99.90;;;;;;5043719;28;20135;-67
2021/10/18 09:38:45;;;;;;;45.42;27.17;;;11.50;99.90;;;;;;5033266;28;20049;-67
2021/10/18 09:41:13;;;;;;;45.03;25.77;;;11.70;99.90;;;;;;5013419;28;20397;-67
2021/10/18 09:44:04;;;;;;;42.65;25.58;;;11.70;99.90;;;;;;5028723;28;20480;-67
2021/10/18 09:46:39;;;;;;;36.67;22.80;;;11.90;99.90;;;;;;5030108;28;20072;-67
2021/10/18 10:54:04;;;;;;;35.25;24.02;;;14.30;99.90;;;;;;5031854;28;20538;-66
2021/10/18 10:56:44;;;;;;;36.75;24.77;;;14.70;99.90;;;;;;5033754;28;20053;-67
2021/10/18 10:59:21;;;;;;;37.58;24.92;;;15.10;99.90;;;;;;5023210;28;20049;-66
2021/10/18 11:01:55;;;;;;;36.55;25.77;;;15.40;99.90;;;;;;5035335;28;20516;-66
2021/10/18 11:04:33;;;;;;;33.42;22.98;;;15.50;99.90;;;;;;5039952;28;20404;-66
2021/10/18 11:07:05;;;;;;;31.08;21.45;;;15.50;99.90;;;;;;5040888;28;20050;-66
2021/10/18 11:09:39;;;;;;;;;;;15.50;99.90;;;;;;5041308;28;20124;-66
2021/10/18 11:12:31;;;;;;;32.13;21.85;;;15.50;99.90;;;;;;5035350;28;19921;-66
2021/10/18 11:15:21;;;;;;;33.72;21.42;;;15.50;99.90;;;;;;5042448;28;20048;-66
2021/10/18 11:17:52;;;;;;;28.75;19.90;;;15.80;99.90;;;;;;5016886;28;20137;-66
2021/10/18 11:20:25;;;;;;;31.15;21.42;;;16.10;99.90;;;;;;5028042;28;20390;-66
2021/10/18 11:22:55;;;;;;;29.80;21.08;;;16.70;99.90;;;;;;5033993;28;20051;-66
2021/10/18 11:25:33;;;;;;;30.13;21.70;;;16.70;99.90;;;;;;5016861;28;20042;-66
2021/10/18 11:28:04;;;;;;;28.90;20.63;;;16.60;99.90;;;;;;5044753;28;20063;-66
2021/10/18 11:30:33;;;;;;;32.95;20.58;;;16.40;99.90;;;;;;5034750;28;20539;-66
2021/10/18 11:33:06;;;;;;;30.30;20.98;;;16.80;99.90;;;;;;5039276;28;20075;-67
2021/10/18 11:35:34;;;;;;;28.77;20.27;;;16.80;99.90;;;;;;5032693;28;20068;-67
2021/10/18 11:38:06;;;;;;;29.08;20.17;;;17.50;99.90;;;;;;5046304;28;20091;-67
2021/10/18 11:40:33;;;;;;;;;;;18.30;99.90;;;;;;5040943;28;20092;-66
2021/10/18 11:43:06;;;;;;;29.95;21.10;;;19.00;99.90;;;;;;5047539;28;19971;-66
2021/10/18 11:45:42;;;;;;;23.85;18.80;;;19.30;99.90;;;;;;5031514;28;20112;-66
2021/10/18 11:48:11;;;;;;;28.15;18.30;;;19.80;99.90;;;;;;5022402;28;20130;-66
2021/10/18 11:50:40;;;;;;;25.40;19.10;;;20.10;99.90;;;;;;5037355;28;20162;-66
2021/10/18 11:53:18;;;;;;;23.92;17.92;;;20.60;99.90;;;;;;5035270;28;20511;-67
2021/10/18 11:55:51;;;;;;;25.70;18.85;;;20.80;99.90;;;;;;5031156;28;20428;-67
2021/10/18 11:58:24;;;;;;;26.02;19.40;;;20.60;99.90;;;;;;5031784;28;20064;-67
2021/10/18 12:01:00;;;;;;;24.75;18.13;;;20.30;99.90;;;;;;5032198;28;20091;-67
2021/10/18 12:03:31;;;;;;;23.80;17.33;;;20.60;99.90;;;;;;5032654;28;20041;-67
2021/10/18 12:06:01;;;;;;;24.58;19.08;;;21.00;99.90;;;;;;5030277;28;20033;-67
2021/10/18 12:08:30;;;;;;;24.92;19.00;;;21.50;99.90;;;;;;5039264;28;20053;-67
2021/10/18 12:10:59;;;;;;;29.10;20.67;;;21.90;99.90;;;;;;5037173;28;20030;-67
2021/10/18 12:13:31;;;;;;;24.70;18.15;;;22.10;99.90;;;;;;5030765;28;20049;-67
2021/10/18 12:16:05;;;;;;;29.30;19.50;;;22.60;99.90;;;;;;5038069;28;20052;-66
2021/10/18 12:18:45;;;;;;;28.42;20.70;;;22.70;99.90;;;;;;5026461;28;20052;-67
2021/10/18 12:21:30;;;;;;;22.90;18.27;;;23.70;99.90;;;;;;5037457;28;20057;-66
2021/10/18 12:24:03;;;;;;;21.42;16.70;;;24.90;99.90;;;;;;5028311;28;20048;-66
2021/10/18 12:26:32;;;;;;;24.67;18.50;;;25.40;99.90;;;;;;5038000;28;20419;-66
2021/10/18 12:29:07;;;;;;;23.08;18.35;;;25.10;99.90;;;;;;5044932;28;20067;-66
2021/10/18 12:31:37;;;;;;;22.80;16.15;;;25.40;99.90;;;;;;5049217;28;20407;-66
2021/10/18 12:34:22;;;;;;;21.10;17.00;;;26.50;99.90;;;;;;5048296;28;20033;-66
2021/10/18 12:36:52;;;;;;;21.52;16.98;;;27.40;99.90;;;;;;5049036;28;20100;-66
2021/10/18 12:39:49;;;;;;;21.70;16.00;;;27.70;99.90;;;;;;5039350;28;20339;-66
2021/10/18 12:42:26;;;;;;;21.13;16.13;;;28.50;99.60;;;;;;5039457;28;20049;-67
2021/10/18 12:45:07;;;;;;;20.17;15.65;;;28.50;97.20;;;;;;5023690;28;20063;-67
2021/10/18 12:47:38;;;;;;;18.33;14.20;;;28.40;97.00;;;;;;5049768;28;20460;-67
2021/10/18 12:50:11;;;;;;;17.92;15.13;;;28.40;96.20;;;;;;5049074;28;20483;-67
2021/10/18 12:52:55;;;;;;;15.65;12.73;;;28.90;95.70;;;;;;5034704;28;20069;-67
2021/10/18 12:55:33;;;;;;;26.13;15.77;;;29.80;95.10;;;;;;5029532;28;20397;-67
2021/10/18 12:58:05;;;;;;;18.50;15.80;;;30.70;92.50;;;;;;5029881;28;20085;-67
2021/10/18 13:00:35;;;;;;;17.42;13.30;;;31.30;90.80;;;;;;5023088;28;20072;-66
2021/10/18 13:03:08;;;;;;;12.35;9.93;;;31.60;89.10;;;;;;5033415;28;20030;-66
2021/10/18 13:05:55;;;;;;;15.20;13.15;;;32.00;87.70;;;;;;5043018;28;20043;-66
2021/10/18 13:08:24;;;;;;;16.80;12.90;;;31.70;85.30;;;;;;5025373;28;20048;-66
2021/10/18 13:10:55;;;;;;;12.77;10.45;;;31.60;85.00;;;;;;5049036;28;20332;-66
2021/10/18 13:13:24;;;;;;;14.98;12.27;;;31.70;83.80;;;;;;5048324;28;20037;-67
2021/10/18 13:15:55;;;;;;;15.10;11.60;;;31.40;83.80;;;;;;5022847;28;20056;-67
2021/10/18 13:18:23;;;;;;;15.32;12.88;;;31.80;82.50;;;;;;5048900;28;20406;-67
2021/10/18 13:20:58;;;;;;;14.18;12.68;;;31.80;82.40;;;;;;5020050;28;20449;-68
2021/10/18 13:23:30;;;;;;;12.73;11.02;;;31.80;82.20;;;;;;5019689;28;20069;-67
2021/10/18 13:26:00;;;;;;;15.43;11.95;;;32.20;80.70;;;;;;5031676;28;20491;-66
2021/10/18 13:28:27;;;;;;;15.25;11.07;;;32.50;79.70;;;;;;5042833;28;20045;-67
2021/10/18 13:30:55;;;;;;;14.35;11.43;;;31.90;78.70;;;;;;5042081;28;20071;-66
2021/10/18 13:33:22;;;;;;;13.27;11.88;;;31.20;79.10;;;;;;5032832;28;20053;-67
2021/10/18 13:35:50;;;;;;;13.05;10.82;;;30.90;79.50;;;;;;5029023;28;20069;-66
2021/10/18 13:38:17;;;;;;;13.07;9.73;;;29.90;80.60;;;;;;5036047;28;20045;-66
2021/10/18 13:40:45;;;;;;;11.85;9.15;;;29.60;81.40;;;;;;5030625;28;20112;-67
2021/10/18 13:43:15;;;;;;;10.15;8.82;;;29.10;80.90;;;;;;5031856;28;20444;-67
2021/10/18 13:45:42;;;;;;;13.63;9.48;;;28.70;82.80;;;;;;5013786;28;20038;-66
2021/10/18 13:48:10;;;;;;;13.48;10.43;;;28.80;82.30;;;;;;5031602;28;20045;-66
2021/10/18 13:50:37;;;;;;;9.90;8.20;;;29.50;82.50;;;;;;5037443;28;20041;-65